Time;durP1;ratioP1;P1;durP2;ratioP2;P2;SDS_P1;SDS_P2;PMS_P1;PMS_P2;Temp;Humidity;BMP_temperature;BMP_pressure;BME280_temperature;BME280_humidity;BME280_pressure;Samples;Min_cycle;Max_cycle;Signal;HPM_P1;HPM_P2
2022/03/26 00:01:50;;;;;;;0.50;0.43;;;;;;;;;;4214147;28;20087;-44
2022/03/26 00:03:51;;;;;;;0.68;0.43;;;;;;;;;;4213841;28;20094;-44
2022/03/26 00:05:51;;;;;;;0.60;0.50;;;;;;;;;;4214589;28;20094;-44
2022/03/26 00:07:52;;;;;;;0.68;0.60;;;;;;;;;;4214328;28;20095;-44
2022/03/26 00:09:53;;;;;;;0.35;0.35;;;;;;;;;;4214571;28;20194;-44
2022/03/26 00:11:54;;;;;;;0.50;0.40;;;;;;;;;;4214151;28;20105;-44
2022/03/26 00:13:55;;;;;;;0.43;0.35;;;;;;;;;;4214301;28;20048;-44
2022/03/26 00:15:56;;;;;;;1.00;0.57;;;;;;;;;;4214333;28;20052;-44
2022/03/26 00:17:57;;;;;;;0.40;0.40;;;;;;;;;;4214004;28;20048;-44
2022/03/26 00:19:58;;;;;;;0.57;0.38;;;;;;;;;;4214760;28;20392;-44
2022/03/26 00:21:59;;;;;;;0.60;0.40;;;;;;;;;;4214520;28;20098;-44
2022/03/26 00:24:00;;;;;;;0.75;0.43;;;;;;;;;;4214316;28;20402;-42
2022/03/26 00:26:01;;;;;;;0.60;0.40;;;;;;;;;;4214108;28;20670;-41
2022/03/26 00:28:02;;;;;;;0.40;0.40;;;;;;;;;;4213080;28;20078;-42
2022/03/26 00:30:04;;;;;;;0.43;0.40;;;;;;;;;;4214261;28;20048;-44
2022/03/26 00:32:06;;;;;;;0.73;0.52;;;;;;;;;;4213726;28;20787;-44
2022/03/26 00:34:08;;;;;;;0.60;0.40;;;;;;;;;;4214158;28;20074;-44
2022/03/26 00:36:10;;;;;;;0.82;0.50;;;;;;;;;;4214083;28;20052;-44
2022/03/26 00:38:10;;;;;;;0.73;0.40;;;;;;;;;;4213864;28;20050;-44
2022/03/26 00:40:13;;;;;;;0.30;0.30;;;;;;;;;;4213930;28;20048;-44
2022/03/26 00:42:15;;;;;;;0.50;0.50;;;;;;;;;;4213669;28;20101;-44
2022/03/26 00:44:16;;;;;;;0.47;0.30;;;;;;;;;;4213929;28;20056;-43
2022/03/26 00:46:18;;;;;;;0.90;0.50;;;;;;;;;;4212466;28;20044;-44
2022/03/26 00:48:19;;;;;;;1.33;0.45;;;;;;;;;;4213390;28;20052;-44
2022/03/26 00:50:20;;;;;;;0.40;0.40;;;;;;;;;;4212518;28;20497;-44
2022/03/26 00:52:21;;;;;;;0.25;0.25;;;;;;;;;;4213684;28;20047;-44
2022/03/26 00:54:23;;;;;;;1.15;0.45;;;;;;;;;;4213484;28;20040;-44
2022/03/26 00:56:23;;;;;;;0.35;0.30;;;;;;;;;;4213748;28;20105;-44
2022/03/26 00:58:25;;;;;;;0.35;0.25;;;;;;;;;;4213412;28;20036;-44
2022/03/26 01:00:27;;;;;;;0.75;0.50;;;;;;;;;;4213495;28;20070;-44
2022/03/26 01:02:28;;;;;;;1.23;0.35;;;;;;;;;;4213152;28;20309;-44
2022/03/26 01:04:29;;;;;;;0.57;0.40;;;;;;;;;;4213824;28;20093;-44
2022/03/26 01:06:29;;;;;;;0.77;0.40;;;;;;;;;;4213675;28;20075;-44
2022/03/26 01:08:31;;;;;;;0.22;0.22;;;;;;;;;;4213223;28;20103;-42
2022/03/26 01:10:32;;;;;;;0.50;0.32;;;;;;;;;;4213384;28;20097;-42
2022/03/26 01:12:33;;;;;;;0.50;0.40;;;;;;;;;;4213287;28;20052;-44
2022/03/26 01:14:34;;;;;;;0.50;0.30;;;;;;;;;;4212717;28;20093;-44
2022/03/26 01:16:35;;;;;;;0.82;0.30;;;;;;;;;;4213616;28;20534;-44
2022/03/26 01:18:36;;;;;;;0.57;0.50;;;;;;;;;;4213224;28;20048;-43
2022/03/26 01:20:37;;;;;;;0.30;0.30;;;;;;;;;;4213304;28;20097;-44
2022/03/26 01:22:38;;;;;;;0.68;0.40;;;;;;;;;;4213114;28;20526;-44
2022/03/26 01:24:40;;;;;;;0.40;0.40;;;;;;;;;;4213248;28;20112;-44
2022/03/26 01:26:41;;;;;;;0.40;0.40;;;;;;;;;;4213788;28;20052;-43
2022/03/26 01:28:43;;;;;;;0.40;0.40;;;;;;;;;;4213158;28;20056;-44
2022/03/26 01:30:45;;;;;;;0.40;0.40;;;;;;;;;;4213165;28;20052;-44
2022/03/26 01:32:48;;;;;;;0.30;0.30;;;;;;;;;;4212950;28;20105;-44
2022/03/26 01:34:49;;;;;;;0.55;0.40;;;;;;;;;;4213056;28;20052;-44
2022/03/26 01:36:50;;;;;;;0.40;0.40;;;;;;;;;;4213184;28;20108;-44
2022/03/26 01:38:51;;;;;;;0.35;0.30;;;;;;;;;;4213024;28;20059;-44
2022/03/26 01:40:52;;;;;;;0.68;0.40;;;;;;;;;;4212953;28;20048;-44
2022/03/26 01:42:54;;;;;;;0.30;0.30;;;;;;;;;;4213100;28;20080;-44
2022/03/26 01:44:54;;;;;;;0.38;0.35;;;;;;;;;;4212992;28;20044;-44
2022/03/26 01:46:55;;;;;;;1.13;0.40;;;;;;;;;;4212481;28;20098;-44
2022/03/26 01:48:56;;;;;;;0.32;0.30;;;;;;;;;;4213162;28;20052;-44
2022/03/26 01:51:14;;;;;;;0.45;0.30;;;;;;;;;;4213220;28;20094;-44
2022/03/26 01:53:15;;;;;;;0.50;0.40;;;;;;;;;;4212689;28;20479;-44
2022/03/26 01:55:17;;;;;;;0.73;0.40;;;;;;;;;;4213069;28;20409;-44
2022/03/26 01:57:18;;;;;;;0.40;0.30;;;;;;;;;;4213033;28;20089;-44
2022/03/26 01:59:19;;;;;;;0.60;0.40;;;;;;;;;;4212996;28;20468;-44
2022/03/26 02:01:20;;;;;;;0.30;0.30;;;;;;;;;;4212896;28;20044;-44
2022/03/26 02:03:21;;;;;;;1.75;0.38;;;;;;;;;;4210905;28;20081;-44
2022/03/26 02:05:22;;;;;;;0.95;0.40;;;;;;;;;;4212841;28;20047;-44
2022/03/26 02:07:24;;;;;;;0.95;0.32;;;;;;;;;;4212678;28;20526;-44
2022/03/26 02:09:25;;;;;;;1.95;0.28;;;;;;;;;;4212681;28;20113;-44
2022/03/26 02:11:30;;;;;;;0.30;0.30;;;;;;;;;;4212557;28;20060;-44
2022/03/26 02:13:50;;;;;;;1.85;0.30;;;;;;;;;;4212583;28;20101;-44
2022/03/26 02:15:52;;;;;;;0.50;0.32;;;;;;;;;;4212803;28;20048;-44
2022/03/26 02:17:52;;;;;;;0.50;0.35;;;;;;;;;;4212182;28;20471;-44
2022/03/26 02:19:54;;;;;;;0.40;0.30;;;;;;;;;;4212694;28;20047;-44
2022/03/26 02:21:55;;;;;;;0.95;0.40;;;;;;;;;;4212435;28;20052;-44
2022/03/26 02:23:56;;;;;;;0.73;0.30;;;;;;;;;;4212587;28;20080;-44
2022/03/26 02:25:57;;;;;;;0.55;0.28;;;;;;;;;;4214786;28;20052;-43
2022/03/26 02:27:57;;;;;;;0.98;0.30;;;;;;;;;;4217967;28;20087;-44
2022/03/26 02:29:59;;;;;;;1.25;0.50;;;;;;;;;;4218219;28;20105;-44
2022/03/26 02:32:01;;;;;;;1.52;0.47;;;;;;;;;;4217735;28;20467;-43
2022/03/26 02:34:03;;;;;;;0.55;0.30;;;;;;;;;;4218016;28;20052;-44
2022/03/26 02:36:04;;;;;;;0.57;0.30;;;;;;;;;;4218191;28;20056;-44
2022/03/26 02:38:05;;;;;;;0.98;0.45;;;;;;;;;;4217969;28;20441;-43
2022/03/26 02:40:07;;;;;;;0.40;0.40;;;;;;;;;;4218038;28;20079;-43
2022/03/26 02:42:08;;;;;;;1.25;0.50;;;;;;;;;;4218003;28;20109;-44
2022/03/26 02:44:09;;;;;;;0.77;0.40;;;;;;;;;;4218223;28;20101;-44
2022/03/26 02:46:10;;;;;;;0.40;0.30;;;;;;;;;;4216978;28;20189;-44
2022/03/26 02:48:13;;;;;;;0.55;0.30;;;;;;;;;;4216239;28;20418;-44
2022/03/26 02:50:13;;;;;;;1.20;0.63;;;;;;;;;;4218192;28;20055;-44
2022/03/26 02:52:14;;;;;;;1.05;0.50;;;;;;;;;;4217830;28;20071;-44
2022/03/26 02:54:18;;;;;;;0.85;0.35;;;;;;;;;;4218081;28;20072;-44
2022/03/26 02:56:19;;;;;;;0.63;0.40;;;;;;;;;;4217921;28;20048;-44
2022/03/26 02:58:21;;;;;;;0.30;0.30;;;;;;;;;;4216472;28;20040;-43
2022/03/26 03:00:22;;;;;;;0.30;0.30;;;;;;;;;;4217952;28;20111;-43
2022/03/26 03:02:23;;;;;;;0.60;0.28;;;;;;;;;;4217510;28;20093;-43
2022/03/26 03:04:24;;;;;;;0.45;0.30;;;;;;;;;;4216601;28;20056;-44
2022/03/26 03:06:25;;;;;;;0.73;0.30;;;;;;;;;;4217784;28;20070;-44
2022/03/26 03:08:26;;;;;;;0.63;0.30;;;;;;;;;;4217813;28;20052;-44
2022/03/26 03:10:28;;;;;;;0.70;0.38;;;;;;;;;;4217641;28;20489;-44
2022/03/26 03:12:29;;;;;;;1.00;0.40;;;;;;;;;;4217999;28;20047;-43
2022/03/26 03:14:30;;;;;;;0.90;0.40;;;;;;;;;;4217860;28;20050;-43
2022/03/26 03:16:31;;;;;;;0.68;0.30;;;;;;;;;;4216555;28;20503;-43
2022/03/26 03:18:32;;;;;;;0.98;0.50;;;;;;;;;;4216120;28;20055;-44
2022/03/26 03:20:33;;;;;;;0.98;0.40;;;;;;;;;;4218120;28;20046;-44
2022/03/26 03:22:35;;;;;;;1.20;0.40;;;;;;;;;;4217531;28;20097;-44
2022/03/26 03:24:36;;;;;;;0.47;0.30;;;;;;;;;;4217676;28;20101;-44
2022/03/26 03:26:37;;;;;;;0.68;0.30;;;;;;;;;;4217651;28;20201;-44
2022/03/26 03:28:38;;;;;;;0.50;0.25;;;;;;;;;;4217559;28;20115;-43
2022/03/26 03:30:39;;;;;;;0.88;0.30;;;;;;;;;;4217807;28;20365;-44
2022/03/26 03:32:40;;;;;;;0.57;0.30;;;;;;;;;;4215844;28;20431;-44
2022/03/26 03:34:41;;;;;;;0.73;0.60;;;;;;;;;;4217588;28;20106;-44
2022/03/26 03:36:42;;;;;;;0.73;0.40;;;;;;;;;;4217755;28;20157;-44
2022/03/26 03:38:43;;;;;;;1.73;0.40;;;;;;;;;;4214105;28;20098;-44
2022/03/26 03:40:44;;;;;;;0.82;0.50;;;;;;;;;;4214957;28;20040;-44
2022/03/26 03:42:45;;;;;;;1.50;0.50;;;;;;;;;;4214903;28;20040;-44
2022/03/26 03:44:46;;;;;;;1.65;0.52;;;;;;;;;;4214867;28;20052;-44
2022/03/26 03:46:47;;;;;;;1.23;0.47;;;;;;;;;;4214406;28;20059;-44
2022/03/26 03:48:48;;;;;;;0.52;0.35;;;;;;;;;;4214787;28;20048;-44
2022/03/26 03:50:49;;;;;;;1.30;0.30;;;;;;;;;;4214710;28;20048;-43
2022/03/26 03:52:50;;;;;;;1.02;0.38;;;;;;;;;;4214631;28;20048;-43
2022/03/26 03:54:51;;;;;;;2.65;0.30;;;;;;;;;;4214877;28;20052;-43
2022/03/26 03:56:52;;;;;;;0.90;0.40;;;;;;;;;;4214662;28;20104;-42
2022/03/26 03:58:53;;;;;;;0.90;0.28;;;;;;;;;;4214488;28;20040;-42
2022/03/26 04:00:54;;;;;;;0.55;0.30;;;;;;;;;;4214720;28;20048;-43
2022/03/26 04:02:56;;;;;;;1.83;0.30;;;;;;;;;;4214166;28;20047;-44
2022/03/26 04:04:57;;;;;;;0.30;0.30;;;;;;;;;;4214689;28;20404;-44
2022/03/26 04:06:58;;;;;;;0.95;0.45;;;;;;;;;;4214472;28;20048;-44
2022/03/26 04:08:59;;;;;;;0.63;0.28;;;;;;;;;;4213145;28;20055;-44
2022/03/26 04:10:59;;;;;;;1.13;0.45;;;;;;;;;;4214227;28;20056;-44
2022/03/26 04:13:00;;;;;;;0.73;0.30;;;;;;;;;;4214369;28;20059;-43
2022/03/26 04:15:02;;;;;;;1.60;0.43;;;;;;;;;;4214362;28;20465;-42
2022/03/26 04:17:03;;;;;;;1.83;0.38;;;;;;;;;;4213797;28;20055;-44
2022/03/26 04:19:04;;;;;;;1.20;0.50;;;;;;;;;;4214397;28;20081;-44
2022/03/26 04:21:05;;;;;;;1.13;0.30;;;;;;;;;;4214533;28;20052;-43
2022/03/26 04:23:06;;;;;;;1.45;0.55;;;;;;;;;;4214472;28;20398;-43
2022/03/26 04:25:07;;;;;;;0.80;0.35;;;;;;;;;;4214385;28;20491;-44
2022/03/26 04:27:08;;;;;;;1.10;0.50;;;;;;;;;;4214206;28;20047;-43
2022/03/26 04:29:09;;;;;;;2.45;0.50;;;;;;;;;;4214131;28;20138;-43
2022/03/26 04:31:10;;;;;;;1.02;0.35;;;;;;;;;;4214039;28;20052;-44
2022/03/26 04:33:12;;;;;;;0.55;0.30;;;;;;;;;;4213871;28;20350;-43
2022/03/26 04:35:13;;;;;;;1.15;0.32;;;;;;;;;;4213994;28;20376;-44
2022/03/26 04:37:14;;;;;;;1.25;0.50;;;;;;;;;;4213902;28;20048;-43
2022/03/26 04:39:15;;;;;;;1.42;0.40;;;;;;;;;;4213921;28;20636;-44
2022/03/26 04:41:16;;;;;;;1.33;0.40;;;;;;;;;;4213973;28;20096;-43
2022/03/26 04:43:18;;;;;;;1.45;0.63;;;;;;;;;;4214040;28;20044;-44
2022/03/26 04:45:19;;;;;;;0.88;0.30;;;;;;;;;;4214015;28;20059;-44
2022/03/26 04:47:20;;;;;;;0.60;0.30;;;;;;;;;;4211998;28;20048;-44
2022/03/26 04:49:21;;;;;;;0.30;0.30;;;;;;;;;;4214013;28;20066;-42
2022/03/26 04:51:22;;;;;;;0.88;0.40;;;;;;;;;;4212723;28;20087;-43
2022/03/26 04:53:23;;;;;;;1.08;0.35;;;;;;;;;;4213593;28;20048;-43
2022/03/26 04:55:24;;;;;;;0.85;0.20;;;;;;;;;;4213592;28;20108;-43
2022/03/26 04:57:25;;;;;;;0.63;0.50;;;;;;;;;;4213506;28;20101;-44
2022/03/26 04:59:26;;;;;;;0.82;0.40;;;;;;;;;;4213489;28;20048;-44
2022/03/26 05:01:27;;;;;;;0.80;0.40;;;;;;;;;;4213637;28;20055;-44
2022/03/26 05:03:28;;;;;;;1.65;0.40;;;;;;;;;;4213063;28;20055;-44
2022/03/26 05:05:29;;;;;;;0.80;0.30;;;;;;;;;;4212288;28;20040;-43
2022/03/26 05:07:45;;;;;;;0.77;0.32;;;;;;;;;;4213549;28;20398;-41
2022/03/26 05:09:47;;;;;;;1.02;0.50;;;;;;;;;;4213575;28;20044;-42
2022/03/26 05:11:47;;;;;;;0.68;0.40;;;;;;;;;;4213096;28;20100;-42
2022/03/26 05:13:49;;;;;;;0.95;0.40;;;;;;;;;;4213245;28;20048;-44
2022/03/26 05:15:50;;;;;;;1.27;0.40;;;;;;;;;;4213540;28;20074;-43
2022/03/26 05:17:51;;;;;;;0.95;0.43;;;;;;;;;;4212903;28;20135;-44
2022/03/26 05:19:52;;;;;;;0.57;0.30;;;;;;;;;;4213224;28;20044;-43
2022/03/26 05:21:53;;;;;;;1.10;0.80;;;;;;;;;;4213069;28;20052;-44
2022/03/26 05:23:53;;;;;;;1.38;0.50;;;;;;;;;;4213231;28;20048;-44
2022/03/26 05:25:54;;;;;;;0.95;0.30;;;;;;;;;;4213510;28;20134;-44
2022/03/26 05:27:56;;;;;;;1.02;0.50;;;;;;;;;;4213175;28;20083;-43
2022/03/26 05:29:57;;;;;;;0.30;0.25;;;;;;;;;;4213308;28;20098;-44
2022/03/26 05:31:59;;;;;;;0.57;0.20;;;;;;;;;;4212668;28;20055;-44
2022/03/26 05:34:00;;;;;;;0.65;0.30;;;;;;;;;;4212909;28;20048;-44
2022/03/26 05:36:01;;;;;;;1.63;0.30;;;;;;;;;;4213173;28;20052;-44
2022/03/26 05:38:02;;;;;;;0.50;0.30;;;;;;;;;;4212888;28;20570;-42
2022/03/26 05:40:04;;;;;;;0.88;0.60;;;;;;;;;;4211793;28;20580;-44
2022/03/26 05:42:05;;;;;;;0.90;0.47;;;;;;;;;;4212722;28;20495;-44
2022/03/26 05:44:08;;;;;;;0.77;0.40;;;;;;;;;;4212857;28;20051;-44
2022/03/26 05:46:10;;;;;;;0.80;0.30;;;;;;;;;;4211624;28;20044;-44
2022/03/26 05:48:12;;;;;;;1.48;0.60;;;;;;;;;;4212483;28;20100;-44
2022/03/26 05:50:13;;;;;;;0.68;0.38;;;;;;;;;;4212838;28;20124;-44
2022/03/26 05:52:14;;;;;;;1.13;0.47;;;;;;;;;;4212676;28;20089;-44
2022/03/26 05:54:15;;;;;;;1.10;0.40;;;;;;;;;;4212918;28;20043;-41
2022/03/26 05:56:16;;;;;;;0.90;0.47;;;;;;;;;;4212799;28;20101;-42
2022/03/26 05:58:17;;;;;;;1.88;0.75;;;;;;;;;;4212616;28;20123;-42
2022/03/26 06:00:18;;;;;;;1.67;0.60;;;;;;;;;;4212303;28;20048;-42
2022/03/26 06:02:21;;;;;;;0.77;0.28;;;;;;;;;;4210903;28;20446;-44
2022/03/26 06:04:24;;;;;;;0.93;0.40;;;;;;;;;;4212747;28;20105;-44
2022/03/26 06:06:25;;;;;;;2.00;0.20;;;;;;;;;;4211313;28;20047;-44
2022/03/26 06:08:26;;;;;;;1.27;0.30;;;;;;;;;;4212668;28;20052;-44
2022/03/26 06:10:28;;;;;;;0.68;0.30;;;;;;;;;;4212477;28;20445;-44
2022/03/26 06:12:28;;;;;;;0.70;0.32;;;;;;;;;;4212274;28;20059;-44
2022/03/26 06:14:29;;;;;;;0.60;0.20;;;;;;;;;;4212618;28;20044;-44
2022/03/26 06:16:31;;;;;;;0.55;0.28;;;;;;;;;;4212804;28;20044;-42
2022/03/26 06:18:32;;;;;;;1.15;0.55;;;;;;;;;;4212345;28;20055;-41
2022/03/26 06:20:33;;;;;;;0.40;0.20;;;;;;;;;;4212519;28;20048;-42
2022/03/26 06:22:34;;;;;;;0.40;0.20;;;;;;;;;;4212428;28;20040;-42
2022/03/26 06:24:35;;;;;;;0.95;0.35;;;;;;;;;;4212494;28;20570;-42
2022/03/26 06:26:37;;;;;;;1.98;0.47;;;;;;;;;;4212652;28;20348;-41
2022/03/26 06:28:38;;;;;;;1.35;0.60;;;;;;;;;;4212406;28;20399;-42
2022/03/26 06:30:39;;;;;;;0.40;0.32;;;;;;;;;;4212747;28;20052;-42
2022/03/26 06:32:41;;;;;;;0.80;0.30;;;;;;;;;;4212187;28;20055;-41
2022/03/26 06:34:42;;;;;;;0.60;0.10;;;;;;;;;;4212390;28;20049;-44
2022/03/26 06:36:43;;;;;;;0.80;0.30;;;;;;;;;;4212730;28;20063;-43
2022/03/26 06:38:44;;;;;;;0.65;0.30;;;;;;;;;;4212540;28;20487;-44
2022/03/26 06:40:45;;;;;;;1.20;0.40;;;;;;;;;;4212413;28;20628;-42
2022/03/26 06:42:46;;;;;;;1.17;0.30;;;;;;;;;;4212613;28;20189;-41
2022/03/26 06:44:47;;;;;;;0.93;0.28;;;;;;;;;;4212253;28;20060;-42
2022/03/26 06:46:48;;;;;;;0.47;0.20;;;;;;;;;;4211989;28;20186;-44
2022/03/26 06:48:49;;;;;;;0.45;0.20;;;;;;;;;;4212304;28;20067;-44
2022/03/26 06:50:50;;;;;;;0.85;0.40;;;;;;;;;;4212351;28;20112;-44
2022/03/26 06:52:51;;;;;;;1.05;0.52;;;;;;;;;;4212115;28;20553;-43
2022/03/26 06:54:52;;;;;;;1.25;0.60;;;;;;;;;;4212110;28;20458;-44
2022/03/26 06:56:53;;;;;;;0.80;0.30;;;;;;;;;;4212091;28;20039;-44
2022/03/26 06:58:55;;;;;;;2.42;0.43;;;;;;;;;;4212455;28;20051;-41
2022/03/26 07:00:58;;;;;;;2.65;0.38;;;;;;;;;;4212035;28;20044;-42
2022/03/26 07:03:01;;;;;;;1.00;0.30;;;;;;;;;;4212088;28;20051;-42
2022/03/26 07:05:02;;;;;;;2.10;0.60;;;;;;;;;;4212343;28;20048;-42
2022/03/26 07:07:03;;;;;;;1.33;0.35;;;;;;;;;;4212187;28;20534;-42
2022/03/26 07:09:04;;;;;;;1.15;0.40;;;;;;;;;;4211964;28;20052;-41
2022/03/26 07:11:05;;;;;;;1.45;0.30;;;;;;;;;;4210571;28;20048;-42
2022/03/26 07:13:07;;;;;;;0.63;0.20;;;;;;;;;;4213715;28;20062;-41
2022/03/26 07:15:08;;;;;;;1.15;0.40;;;;;;;;;;4215165;28;20430;-43
2022/03/26 07:17:09;;;;;;;1.17;0.32;;;;;;;;;;4214737;28;20491;-44
2022/03/26 07:19:10;;;;;;;1.08;0.47;;;;;;;;;;4215261;28;20131;-43
2022/03/26 07:21:11;;;;;;;2.03;0.43;;;;;;;;;;4215138;28;20135;-44
2022/03/26 07:23:12;;;;;;;0.95;0.30;;;;;;;;;;4214999;28;20158;-44
2022/03/26 07:25:13;;;;;;;0.88;0.30;;;;;;;;;;4215176;28;20139;-44
2022/03/26 07:27:14;;;;;;;0.95;0.25;;;;;;;;;;4214857;28;20181;-44
2022/03/26 07:29:15;;;;;;;1.85;0.30;;;;;;;;;;4215196;28;20048;-44
2022/03/26 07:31:16;;;;;;;0.93;0.30;;;;;;;;;;4214995;28;20909;-44
2022/03/26 07:33:17;;;;;;;0.35;0.20;;;;;;;;;;4214668;28;20063;-44
2022/03/26 07:35:18;;;;;;;2.25;0.38;;;;;;;;;;4215095;28;20055;-44
2022/03/26 07:37:19;;;;;;;3.78;0.40;;;;;;;;;;4214878;28;20498;-44
2022/03/26 07:39:20;;;;;;;1.02;0.35;;;;;;;;;;4214857;28;20630;-44
2022/03/26 07:41:21;;;;;;;0.95;0.30;;;;;;;;;;4214938;28;20071;-44
2022/03/26 07:43:23;;;;;;;1.13;0.50;;;;;;;;;;4214986;28;20052;-43
2022/03/26 07:45:24;;;;;;;0.77;0.20;;;;;;;;;;4214918;28;20044;-44
2022/03/26 07:47:25;;;;;;;0.40;0.20;;;;;;;;;;4214289;28;20040;-43
2022/03/26 07:49:26;;;;;;;0.82;0.28;;;;;;;;;;4214902;28;20124;-44
2022/03/26 07:51:27;;;;;;;2.50;0.17;;;;;;;;;;4214873;28;20048;-44
2022/03/26 07:53:29;;;;;;;0.47;0.20;;;;;;;;;;4214510;28;20498;-44
2022/03/26 07:55:30;;;;;;;0.40;0.20;;;;;;;;;;4214627;28;20052;-44
2022/03/26 07:57:32;;;;;;;0.30;0.20;;;;;;;;;;4214563;28;20048;-42
2022/03/26 07:59:33;;;;;;;0.88;0.30;;;;;;;;;;4214865;28;20459;-41
2022/03/26 08:01:33;;;;;;;2.33;0.28;;;;;;;;;;4214779;28;20048;-42
2022/03/26 08:03:34;;;;;;;1.08;0.30;;;;;;;;;;4214008;28;20441;-42
2022/03/26 08:05:36;;;;;;;1.65;0.50;;;;;;;;;;4214620;28;20097;-42
2022/03/26 08:07:37;;;;;;;3.00;0.38;;;;;;;;;;4214234;28;20114;-42
2022/03/26 08:09:38;;;;;;;1.33;0.20;;;;;;;;;;4214274;28;20043;-44
2022/03/26 08:11:39;;;;;;;1.45;0.30;;;;;;;;;;4214384;28;20055;-44
2022/03/26 08:13:41;;;;;;;1.00;0.20;;;;;;;;;;4214110;28;20052;-42
2022/03/26 08:15:42;;;;;;;2.55;0.30;;;;;;;;;;4214365;28;20056;-44
2022/03/26 08:17:43;;;;;;;0.85;0.50;;;;;;;;;;4212608;28;20044;-43
2022/03/26 08:19:45;;;;;;;0.98;0.52;;;;;;;;;;4214249;28;20539;-44
2022/03/26 08:21:46;;;;;;;0.85;0.38;;;;;;;;;;4214292;28;20101;-44
2022/03/26 08:23:47;;;;;;;1.10;0.30;;;;;;;;;;4213579;28;20094;-44
2022/03/26 08:28:08;;;;;;;1.27;0.60;;;;;;;;;;4214422;28;20097;-43
2022/03/26 08:30:09;;;;;;;0.95;0.30;;;;;;;;;;4214107;28;20048;-44
2022/03/26 08:32:10;;;;;;;2.53;0.60;;;;;;;;;;4213642;28;20056;-44
2022/03/26 08:34:12;;;;;;;2.00;0.40;;;;;;;;;;4213977;28;20044;-43
2022/03/26 08:36:13;;;;;;;0.63;0.30;;;;;;;;;;4214073;28;20052;-43
2022/03/26 08:38:14;;;;;;;0.77;0.32;;;;;;;;;;4213768;28;20081;-44
2022/03/26 08:40:15;;;;;;;1.30;0.30;;;;;;;;;;4214325;28;20074;-43
2022/03/26 08:42:16;;;;;;;0.40;0.20;;;;;;;;;;4213801;28;20164;-44
2022/03/26 08:44:17;;;;;;;1.77;0.30;;;;;;;;;;4214019;28;20060;-44
2022/03/26 08:46:19;;;;;;;0.93;0.30;;;;;;;;;;4213788;28;20082;-43
2022/03/26 08:48:20;;;;;;;0.77;0.45;;;;;;;;;;4213420;28;20052;-43
2022/03/26 08:50:21;;;;;;;0.63;0.30;;;;;;;;;;4213937;28;20066;-44
2022/03/26 08:52:23;;;;;;;1.67;0.45;;;;;;;;;;4213588;28;20070;-43
2022/03/26 08:54:24;;;;;;;0.47;0.28;;;;;;;;;;4213694;28;20059;-43
2022/03/26 08:56:25;;;;;;;0.50;0.20;;;;;;;;;;4213690;28;20044;-43
2022/03/26 08:58:26;;;;;;;2.08;0.40;;;;;;;;;;4213639;28;20051;-43
2022/03/26 09:00:27;;;;;;;0.60;0.20;;;;;;;;;;4213496;28;20044;-43
2022/03/26 09:02:28;;;;;;;0.45;0.20;;;;;;;;;;4213343;28;20058;-44
2022/03/26 09:04:29;;;;;;;0.40;0.20;;;;;;;;;;4213850;28;20048;-44
2022/03/26 09:06:30;;;;;;;0.82;0.15;;;;;;;;;;4213512;28;20055;-43
2022/03/26 09:08:31;;;;;;;1.08;0.50;;;;;;;;;;4213384;28;20101;-43
2022/03/26 09:10:32;;;;;;;1.15;0.28;;;;;;;;;;4213312;28;20051;-36
2022/03/26 09:12:34;;;;;;;1.20;0.30;;;;;;;;;;4213518;28;20101;-36
2022/03/26 09:14:34;;;;;;;0.80;0.40;;;;;;;;;;4213322;28;20095;-36
2022/03/26 09:16:35;;;;;;;1.65;0.40;;;;;;;;;;4213897;28;20048;-36
2022/03/26 09:18:36;;;;;;;1.83;0.40;;;;;;;;;;4212888;28;20450;-36
2022/03/26 09:20:38;;;;;;;1.13;0.30;;;;;;;;;;4213397;28;20131;-36
2022/03/26 09:22:39;;;;;;;2.75;0.45;;;;;;;;;;4213641;28;20048;-36
2022/03/26 09:24:40;;;;;;;3.50;0.40;;;;;;;;;;4213287;28;20094;-36
2022/03/26 09:26:42;;;;;;;0.93;0.25;;;;;;;;;;4213429;28;20048;-36
2022/03/26 09:28:45;;;;;;;1.05;0.38;;;;;;;;;;4213576;28;20055;-36
2022/03/26 09:30:46;;;;;;;1.55;0.35;;;;;;;;;;4213157;28;20047;-36
2022/03/26 09:32:47;;;;;;;0.80;0.20;;;;;;;;;;4212819;28;20509;-36
2022/03/26 09:34:49;;;;;;;0.63;0.30;;;;;;;;;;4212927;28;20055;-36
2022/03/26 09:36:50;;;;;;;2.05;0.25;;;;;;;;;;4212586;28;20502;-36
2022/03/26 09:38:51;;;;;;;1.65;0.40;;;;;;;;;;4213169;28;20130;-36
2022/03/26 09:40:52;;;;;;;1.70;0.50;;;;;;;;;;4213331;28;20044;-37
2022/03/26 09:42:53;;;;;;;1.13;0.32;;;;;;;;;;4213165;28;20474;-36
2022/03/26 09:44:54;;;;;;;0.80;0.20;;;;;;;;;;4212971;28;20089;-36
2022/03/26 09:46:55;;;;;;;0.28;0.13;;;;;;;;;;4212676;28;20089;-36
2022/03/26 09:48:56;;;;;;;1.25;0.20;;;;;;;;;;4212964;28;20217;-36
2022/03/26 09:50:58;;;;;;;1.38;0.38;;;;;;;;;;4212935;28;20051;-36
2022/03/26 09:52:59;;;;;;;0.35;0.20;;;;;;;;;;4213019;28;20074;-36
2022/03/26 09:55:00;;;;;;;0.90;0.30;;;;;;;;;;4213010;28;20080;-36
2022/03/26 09:57:01;;;;;;;1.33;0.20;;;;;;;;;;4212645;28;20044;-36
2022/03/26 09:59:02;;;;;;;0.95;0.30;;;;;;;;;;4213073;28;20084;-36
2022/03/26 10:01:03;;;;;;;0.47;0.25;;;;;;;;;;4212996;28;20079;-36
2022/03/26 10:03:04;;;;;;;0.75;0.22;;;;;;;;;;4212204;28;20048;-36
2022/03/26 10:05:08;;;;;;;0.75;0.30;;;;;;;;;;4212632;28;20048;-36
2022/03/26 10:07:09;;;;;;;1.52;0.40;;;;;;;;;;4212569;28;20491;-36
2022/03/26 10:09:09;;;;;;;0.47;0.30;;;;;;;;;;4211537;28;20048;-36
2022/03/26 10:11:19;;;;;;;1.75;0.22;;;;;;;;;;4212375;28;20063;-36
2022/03/26 10:13:20;;;;;;;;;;;;;;;;;;4211853;28;20156;-36
2022/03/26 10:15:21;;;;;;;1.10;0.20;;;;;;;;;;4212467;28;19971;-36
2022/03/26 10:17:30;;;;;;;2.17;0.30;;;;;;;;;;4212051;28;20117;-36
2022/03/26 10:19:31;;;;;;;0.47;0.17;;;;;;;;;;4212471;28;20089;-36
2022/03/26 10:21:32;;;;;;;0.75;0.20;;;;;;;;;;4212554;28;20407;-36
2022/03/26 10:23:33;;;;;;;1.40;0.30;;;;;;;;;;4212363;28;20055;-36
2022/03/26 10:25:34;;;;;;;0.35;0.17;;;;;;;;;;4212507;28;20048;-37
2022/03/26 10:27:38;;;;;;;0.57;0.30;;;;;;;;;;4212373;28;20090;-36
2022/03/26 10:30:08;;;;;;;0.40;0.20;;;;;;;;;;4212682;28;20043;-36
2022/03/26 10:34:31;;;;;;;0.70;0.20;;;;;;;;;;4212368;28;20521;-36
2022/03/26 10:36:36;;;;;;;1.10;0.22;;;;;;;;;;4212418;28;20051;-36
2022/03/26 10:38:38;;;;;;;0.95;0.20;;;;;;;;;;4212170;28;20079;-36
2022/03/26 10:40:39;;;;;;;0.57;0.30;;;;;;;;;;4212422;28;20081;-36
2022/03/26 10:42:40;;;;;;;0.52;0.20;;;;;;;;;;4210790;28;20514;-36
2022/03/26 10:44:41;;;;;;;0.57;0.28;;;;;;;;;;4212301;28;20182;-36
2022/03/26 10:46:43;;;;;;;0.45;0.28;;;;;;;;;;4212877;28;20052;-36
2022/03/26 10:48:44;;;;;;;1.25;0.20;;;;;;;;;;4215129;28;20056;-36
2022/03/26 10:50:45;;;;;;;0.60;0.20;;;;;;;;;;4214323;28;20126;-36
2022/03/26 10:52:46;;;;;;;0.65;0.30;;;;;;;;;;4215826;28;20059;-36
2022/03/26 10:54:49;;;;;;;0.63;0.20;;;;;;;;;;4215427;28;20044;-36
2022/03/26 10:56:52;;;;;;;1.75;0.30;;;;;;;;;;4214237;28;20052;-36
2022/03/26 10:58:53;;;;;;;0.80;0.38;;;;;;;;;;4215424;28;20051;-36
2022/03/26 11:00:54;;;;;;;0.40;0.10;;;;;;;;;;4214173;28;20043;-36
2022/03/26 11:02:55;;;;;;;1.92;0.28;;;;;;;;;;4214939;28;20044;-36
2022/03/26 11:04:56;;;;;;;0.20;0.20;;;;;;;;;;4215586;28;20062;-36
2022/03/26 11:06:57;;;;;;;0.70;0.28;;;;;;;;;;4215550;28;20522;-36
2022/03/26 11:09:01;;;;;;;0.93;0.22;;;;;;;;;;4215318;28;20097;-36
2022/03/26 11:11:11;;;;;;;1.88;0.30;;;;;;;;;;4215211;28;20056;-36
2022/03/26 11:13:12;;;;;;;0.85;0.20;;;;;;;;;;4215266;28;20105;-36
2022/03/26 11:15:16;;;;;;;1.17;0.20;;;;;;;;;;4213919;28;20048;-41
2022/03/26 11:17:17;;;;;;;1.85;0.10;;;;;;;;;;4214779;28;20044;-36
2022/03/26 11:19:27;;;;;;;0.75;0.20;;;;;;;;;;4215144;28;20044;-36
2022/03/26 11:21:29;;;;;;;0.77;0.30;;;;;;;;;;4215665;28;20040;-36
2022/03/26 11:23:29;;;;;;;2.30;0.20;;;;;;;;;;4215086;28;20097;-36
2022/03/26 11:25:49;;;;;;;0.38;0.10;;;;;;;;;;4215171;28;20112;-36
2022/03/26 11:27:53;;;;;;;2.00;0.40;;;;;;;;;;4215217;28;20101;-36
2022/03/26 11:30:13;;;;;;;0.80;0.20;;;;;;;;;;4215069;28;20089;-36
2022/03/26 11:32:19;;;;;;;0.68;0.20;;;;;;;;;;4213181;28;20059;-36
2022/03/26 11:34:20;;;;;;;0.60;0.15;;;;;;;;;;4215014;28;20101;-36
2022/03/26 11:36:27;;;;;;;0.20;0.20;;;;;;;;;;4214976;28;20477;-36
2022/03/26 11:38:29;;;;;;;0.63;0.20;;;;;;;;;;4214933;28;20376;-36
2022/03/26 11:40:40;;;;;;;0.30;0.10;;;;;;;;;;4214882;28;20044;-36
2022/03/26 11:42:41;;;;;;;0.70;0.20;;;;;;;;;;4214807;28;20380;-36
2022/03/26 11:44:45;;;;;;;0.20;0.10;;;;;;;;;;4214858;28;20117;-36
2022/03/26 11:51:27;;;;;;;0.57;0.20;;;;;;;;;;4214941;28;19920;-36
2022/03/26 11:53:35;;;;;;;0.70;0.20;;;;;;;;;;4214642;28;20048;-36
2022/03/26 11:55:46;;;;;;;1.27;0.30;;;;;;;;;;4214598;28;20048;-36
2022/03/26 11:58:07;;;;;;;0.50;0.20;;;;;;;;;;4214678;28;20094;-37
2022/03/26 12:00:15;;;;;;;0.80;0.30;;;;;;;;;;4214043;28;20437;-36
2022/03/26 12:02:17;;;;;;;0.82;0.30;;;;;;;;;;4214342;28;20040;-36
2022/03/26 12:04:19;;;;;;;2.22;0.20;;;;;;;;;;4214658;28;20044;-36
2022/03/26 12:06:39;;;;;;;0.35;0.15;;;;;;;;;;4214614;28;20189;-36
2022/03/26 12:08:41;;;;;;;0.40;0.22;;;;;;;;;;4214476;28;20048;-36
2022/03/26 12:10:43;;;;;;;0.63;0.20;;;;;;;;;;4214394;28;20540;-36
2022/03/26 12:12:58;;;;;;;0.20;0.20;;;;;;;;;;4214671;28;20048;-36
2022/03/26 12:15:05;;;;;;;0.40;0.20;;;;;;;;;;4214243;28;20055;-36
2022/03/26 12:17:08;;;;;;;0.93;0.30;;;;;;;;;;4212691;28;20095;-36
2022/03/26 12:19:09;;;;;;;0.52;0.10;;;;;;;;;;4214433;28;20048;-36
2022/03/26 12:21:20;;;;;;;0.68;0.20;;;;;;;;;;4214227;28;20051;-36